METAR Data
IDs: Format: Raw Decoded Include TAF

Data at: 2150 UTC 08 Aug 2020

KIFP 082150Z 18010KT 20SM SKC 42/M02 A2982
KIFP 082050Z 19008KT 20SM SKC 41/M01 A2984
KIFP 081947Z 20007KT 20SM SKC 40/M03 A2986
KIFP 081849Z 19006KT 20SM SKC 38/M04 A2988
KIFP 081747Z 19006KT 20SM SKC 36/05 A2990
KIFP 081650Z 00000KT 20SM SKC 33/M05 A2990
KIFP 081550Z 00000KT 20SM SKC 30/M05 A2991
KIFP 081450Z 00000KT SKC 27/M04 A2991
KIFP 080048Z 160KT 20SM SCT100 40/M07 A2974
KIFP 072350Z 16014KT 20SM SKC 41/M07 A2974
KIFP 072248Z 19008KT 20SM SKC 41/06 A2976
KIFP 072151Z 21009KT 20SM SKC 40/M08 A2978
KIFP 072050Z 17012KT 20SM SKC 39/M08 A2980
KIFP 071950Z 21008KT 20SM SKC 38/M07 A2982
KIFP 071848Z 20012KT 20SM SKC 37/M05 A2983
KIFP 071748Z 23012KT 20SM SKC 35/M02 A2984
KIFP 071650Z 21007KT 20SM SKC 33/M01 A2985
KIFP 071550Z 00000KT 20SM SKC 30/M02 A2984
KIFP 071450Z 00000KT 20SM SKC 28/M03 A2982